Vina, California
Current Conditions -  °F | °C
As of 9:55 PM on Wednesday 22 Oct 2014 (Local Time) from KCIC Reporting Station
Broken Clouds Broken Clouds  
Wind Chill: 66°   Ceiling: 4200
Heat Index: 66°   Visibility: 10mi
Dew Point: 41°   Wind: 0mph
Humidity: 40%   Direction: NA
Pressure: 30.01"   Gusts: NA
Location:  39.93°N, 122.06°W
Report Text: KCIC 230455Z AUTO 00000KT 10SM FEW035 BKN042 BKN050 19/05 A3001 RMK AO1
Loading
Personal Weather Stations






























Interactive Weather Map
Tropical Storm Tracking
New forecast layout! Learn more

10-Day Weather Forecast

Advertisements
Track Severe Weather on mobile